DAL542 KBOS-KRDU
Flight info
| Callsign | DAL542 |
|---|---|
| Flight time | 1h 46m |
| Altitude | 36000 |
| Route | SSOXS7 SSOXS Q167 ZJAAY TAQLE3 |
| Aircraft | A21N/M-SDE2E3FGHIRWXY/LB1 |
Departure
| Time | 2026-05-07 00:13 |
|---|---|
| Airport | Boston Logan International Airport (KBOS) |
Arrival
| Time | 2026-05-07 01:59 |
|---|---|
| Airport | Raleigh-Durham International Airport (KRDU) |
| Time | Latitude | Longitude | Altitude | Speed | Heading |
|---|---|---|---|---|---|
| 2026-05-06 23:28 | 42.36396 | -71.02249 | 29 ft | 0 kts | 33° |
| 2026-05-06 23:42 | 42.36390 | -71.02254 | 28 ft | 2 kts | 40° |
| 2026-05-06 23:42 | 42.36378 | -71.02270 | 28 ft | 2 kts | 51° |
| 2026-05-06 23:43 | 42.36370 | -71.02289 | 27 ft | 2 kts | 72° |
| 2026-05-06 23:43 | 42.36368 | -71.02311 | 28 ft | 2 kts | 101° |
| 2026-05-06 23:43 | 42.36374 | -71.02331 | 27 ft | 2 kts | 130° |
| 2026-05-06 23:43 | 42.36387 | -71.02343 | 27 ft | 2 kts | 149° |
| 2026-05-06 23:44 | 42.36398 | -71.02351 | 28 ft | 1 kts | 154° |
| 2026-05-06 23:44 | 42.36399 | -71.02352 | 28 ft | 0 kts | 154° |
| 2026-05-06 23:44 | 42.36397 | -71.02351 | 28 ft | 0 kts | 154° |
| 2026-05-06 23:44 | 42.36393 | -71.02348 | 28 ft | 1 kts | 154° |
| 2026-05-06 23:45 | 42.36392 | -71.02348 | 28 ft | 0 kts | 154° |
| 2026-05-06 23:49 | 42.36389 | -71.02345 | 28 ft | 5 kts | 156° |
| 2026-05-06 23:50 | 42.36326 | -71.02335 | 27 ft | 9 kts | 182° |
| 2026-05-06 23:50 | 42.36269 | -71.02340 | 27 ft | 0 kts | 184° |
| 2026-05-06 23:50 | 42.36268 | -71.02340 | 27 ft | 1 kts | 181° |
| 2026-05-06 23:51 | 42.36262 | -71.02340 | 27 ft | 0 kts | 180° |
| 2026-05-06 23:51 | 42.36258 | -71.02340 | 27 ft | 0 kts | 182° |
| 2026-05-06 23:51 | 42.36257 | -71.02340 | 27 ft | 2 kts | 182° |
| 2026-05-06 23:51 | 42.36216 | -71.02343 | 27 ft | 8 kts | 184° |
| 2026-05-06 23:52 | 42.36150 | -71.02347 | 28 ft | 11 kts | 175° |
| 2026-05-06 23:52 | 42.36069 | -71.02307 | 28 ft | 14 kts | 146° |
| 2026-05-06 23:52 | 42.36006 | -71.02196 | 28 ft | 15 kts | 120° |
| 2026-05-06 23:52 | 42.35954 | -71.02076 | 29 ft | 15 kts | 121° |
| 2026-05-06 23:53 | 42.35902 | -71.01960 | 29 ft | 14 kts | 122° |
| 2026-05-06 23:53 | 42.35862 | -71.01854 | 31 ft | 12 kts | 110° |
| 2026-05-06 23:53 | 42.35840 | -71.01745 | 32 ft | 10 kts | 103° |
| 2026-05-06 23:53 | 42.35825 | -71.01656 | 33 ft | 11 kts | 98° |
| 2026-05-06 23:54 | 42.35857 | -71.01567 | 33 ft | 12 kts | 31° |
| 2026-05-06 23:54 | 42.35952 | -71.01518 | 31 ft | 18 kts | 19° |
| 2026-05-06 23:54 | 42.36075 | -71.01460 | 32 ft | 19 kts | 19° |
| 2026-05-06 23:54 | 42.36206 | -71.01397 | 29 ft | 21 kts | 19° |
| 2026-05-06 23:55 | 42.36335 | -71.01334 | 28 ft | 15 kts | 20° |
| 2026-05-06 23:55 | 42.36438 | -71.01283 | 27 ft | 17 kts | 20° |
| 2026-05-06 23:55 | 42.36548 | -71.01230 | 28 ft | 9 kts | 20° |
| 2026-05-06 23:55 | 42.36637 | -71.01186 | 31 ft | 15 kts | 20° |
| 2026-05-06 23:56 | 42.36699 | -71.01156 | 31 ft | 9 kts | 17° |
| 2026-05-06 23:56 | 42.36761 | -71.01148 | 30 ft | 8 kts | 351° |
| 2026-05-06 23:56 | 42.36794 | -71.01165 | 29 ft | 1 kts | 331° |
| 2026-05-06 23:56 | 42.36796 | -71.01167 | 28 ft | 1 kts | 329° |
| 2026-05-06 23:57 | 42.36809 | -71.01180 | 28 ft | 6 kts | 320° |
| 2026-05-06 23:57 | 42.36853 | -71.01237 | 27 ft | 20 kts | 315° |
| 2026-05-06 23:57 | 42.36959 | -71.01370 | 29 ft | 23 kts | 317° |
| 2026-05-06 23:57 | 42.37088 | -71.01545 | 31 ft | 28 kts | 315° |
| 2026-05-06 23:58 | 42.37206 | -71.01572 | 31 ft | 22 kts | 65° |
| 2026-05-06 23:58 | 42.37144 | -71.01407 | 31 ft | 21 kts | 137° |
| 2026-05-06 23:58 | 42.37037 | -71.01265 | 30 ft | 18 kts | 135° |
| 2026-05-06 23:58 | 42.37004 | -71.01220 | 29 ft | 6 kts | 135° |
| 2026-05-06 23:59 | 42.36997 | -71.01211 | 29 ft | 0 kts | 134° |
| 2026-05-07 00:04 | 42.36976 | -71.01175 | 29 ft | 7 kts | 121° |
| 2026-05-07 00:04 | 42.36990 | -71.01109 | 27 ft | 13 kts | 32° |
| 2026-05-07 00:04 | 42.37111 | -71.01030 | 27 ft | 14 kts | 25° |
| 2026-05-07 00:04 | 42.37192 | -71.00978 | 26 ft | 12 kts | 26° |
| 2026-05-07 00:05 | 42.37278 | -71.00922 | 25 ft | 15 kts | 23° |
| 2026-05-07 00:05 | 42.37367 | -71.00875 | 26 ft | 12 kts | 20° |
| 2026-05-07 00:05 | 42.37449 | -71.00834 | 27 ft | 13 kts | 20° |
| 2026-05-07 00:05 | 42.37539 | -71.00789 | 27 ft | 14 kts | 20° |
| 2026-05-07 00:06 | 42.37629 | -71.00746 | 29 ft | 0 kts | 19° |
| 2026-05-07 00:06 | 42.37659 | -71.00731 | 30 ft | 13 kts | 20° |
| 2026-05-07 00:06 | 42.37694 | -71.00714 | 31 ft | 12 kts | 20° |
| 2026-05-07 00:06 | 42.37715 | -71.00704 | 32 ft | 0 kts | 19° |
| 2026-05-07 00:07 | 42.37776 | -71.00676 | 32 ft | 5 kts | 19° |
| 2026-05-07 00:07 | 42.37803 | -71.00662 | 32 ft | 0 kts | 23° |
| 2026-05-07 00:07 | 42.37808 | -71.00659 | 32 ft | 2 kts | 23° |
| 2026-05-07 00:08 | 42.37811 | -71.00657 | 32 ft | 0 kts | 24° |
| 2026-05-07 00:10 | 42.37813 | -71.00656 | 32 ft | 2 kts | 25° |
| 2026-05-07 00:10 | 42.37834 | -71.00630 | 31 ft | 6 kts | 58° |
| 2026-05-07 00:11 | 42.37837 | -71.00584 | 31 ft | 0 kts | 104° |
| 2026-05-07 00:11 | 42.37817 | -71.00516 | 30 ft | 13 kts | 126° |
| 2026-05-07 00:11 | 42.37739 | -71.00497 | 29 ft | 0 kts | 197° |
| 2026-05-07 00:12 | 42.37732 | -71.00500 | 29 ft | 2 kts | 197° |
| 2026-05-07 00:12 | 42.37727 | -71.00502 | 29 ft | 0 kts | 197° |
| 2026-05-07 00:12 | 42.37593 | -71.00563 | 30 ft | 52 kts | 199° |
| 2026-05-07 00:12 | 42.37020 | -71.00840 | 27 ft | 123 kts | 200° |
| 2026-05-07 00:13 | 42.36052 | -71.01317 | 211 ft | 160 kts | 201° |
| 2026-05-07 00:13 | 42.34995 | -71.01728 | 935 ft | 161 kts | 188° |
| 2026-05-07 00:13 | 42.33881 | -71.01374 | 1653 ft | 177 kts | 154° |
| 2026-05-07 00:13 | 42.33021 | -71.00333 | 2007 ft | 203 kts | 139° |
| 2026-05-07 00:14 | 42.32082 | -70.98735 | 2262 ft | 230 kts | 133° |
| 2026-05-07 00:14 | 42.31299 | -70.96744 | 2658 ft | 252 kts | 109° |
| 2026-05-07 00:14 | 42.31238 | -70.94302 | 3061 ft | 272 kts | 84° |
| 2026-05-07 00:14 | 42.31588 | -70.91739 | 3574 ft | 280 kts | 78° |
| 2026-05-07 00:15 | 42.32001 | -70.89155 | 4203 ft | 285 kts | 78° |
| 2026-05-07 00:15 | 42.32418 | -70.86467 | 4729 ft | 298 kts | 79° |
| 2026-05-07 00:15 | 42.32827 | -70.83731 | 5421 ft | 303 kts | 79° |
| 2026-05-07 00:15 | 42.33117 | -70.80897 | 6207 ft | 306 kts | 94° |
| 2026-05-07 00:16 | 42.32689 | -70.78157 | 6934 ft | 302 kts | 115° |
| 2026-05-07 00:16 | 42.31859 | -70.75545 | 7693 ft | 304 kts | 120° |
| 2026-05-07 00:16 | 42.30950 | -70.72943 | 8435 ft | 308 kts | 122° |
| 2026-05-07 00:16 | 42.29952 | -70.70368 | 9178 ft | 309 kts | 131° |
| 2026-05-07 00:17 | 42.28510 | -70.68315 | 9867 ft | 297 kts | 156° |
| 2026-05-07 00:17 | 42.26671 | -70.67128 | 10384 ft | 297 kts | 169° |
| 2026-05-07 00:17 | 42.24655 | -70.66214 | 10653 ft | 315 kts | 171° |
| 2026-05-07 00:17 | 42.22503 | -70.65296 | 10930 ft | 334 kts | 171° |
| 2026-05-07 00:18 | 42.20225 | -70.64303 | 11195 ft | 353 kts | 170° |
| 2026-05-07 00:18 | 42.17849 | -70.63239 | 11588 ft | 365 kts | 169° |
| 2026-05-07 00:18 | 42.15406 | -70.62308 | 12188 ft | 363 kts | 178° |
| 2026-05-07 00:18 | 42.12931 | -70.62157 | 12911 ft | 352 kts | 193° |
| 2026-05-07 00:19 | 42.10594 | -70.62849 | 13580 ft | 348 kts | 202° |
| 2026-05-07 00:19 | 42.08285 | -70.63842 | 14136 ft | 350 kts | 204° |
| 2026-05-07 00:19 | 42.05974 | -70.64887 | 14683 ft | 352 kts | 205° |
| 2026-05-07 00:19 | 42.03637 | -70.65941 | 15234 ft | 355 kts | 204° |
| 2026-05-07 00:20 | 42.01286 | -70.66991 | 15753 ft | 357 kts | 204° |
| 2026-05-07 00:20 | 41.98919 | -70.68041 | 16285 ft | 360 kts | 204° |
| 2026-05-07 00:20 | 41.96533 | -70.69094 | 16767 ft | 363 kts | 204° |
| 2026-05-07 00:20 | 41.94121 | -70.70156 | 17239 ft | 366 kts | 204° |
| 2026-05-07 00:21 | 41.91697 | -70.71221 | 17731 ft | 368 kts | 204° |
| 2026-05-07 00:21 | 41.89256 | -70.72292 | 18186 ft | 370 kts | 204° |
| 2026-05-07 00:21 | 41.86802 | -70.73368 | 18549 ft | 373 kts | 204° |
| 2026-05-07 00:21 | 41.84339 | -70.74515 | 18911 ft | 375 kts | 208° |
| 2026-05-07 00:22 | 41.82004 | -70.75947 | 19270 ft | 375 kts | 212° |
| 2026-05-07 00:22 | 41.79696 | -70.77593 | 19629 ft | 377 kts | 214° |
| 2026-05-07 00:22 | 41.77414 | -70.79337 | 19942 ft | 380 kts | 216° |
| 2026-05-07 00:22 | 41.75123 | -70.81128 | 20327 ft | 382 kts | 216° |
| 2026-05-07 00:23 | 41.72819 | -70.82925 | 20714 ft | 385 kts | 216° |
| 2026-05-07 00:23 | 41.70492 | -70.84721 | 21080 ft | 387 kts | 216° |
| 2026-05-07 00:23 | 41.68145 | -70.86510 | 21453 ft | 390 kts | 216° |
| 2026-05-07 00:23 | 41.65775 | -70.88299 | 21852 ft | 393 kts | 217° |
| 2026-05-07 00:24 | 41.63387 | -70.90091 | 22269 ft | 394 kts | 217° |
| 2026-05-07 00:24 | 41.61024 | -70.91858 | 22596 ft | 396 kts | 217° |
| 2026-05-07 00:24 | 41.58616 | -70.93674 | 22942 ft | 397 kts | 219° |
| 2026-05-07 00:24 | 41.56340 | -70.95729 | 23288 ft | 393 kts | 226° |
| 2026-05-07 00:25 | 41.54313 | -70.98138 | 23598 ft | 388 kts | 233° |
| 2026-05-07 00:25 | 41.52584 | -71.00879 | 23900 ft | 385 kts | 238° |
| 2026-05-07 00:25 | 41.51006 | -71.03765 | 24210 ft | 384 kts | 240° |
| 2026-05-07 00:25 | 41.49504 | -71.06711 | 24516 ft | 385 kts | 242° |
| 2026-05-07 00:26 | 41.48032 | -71.09695 | 24821 ft | 385 kts | 242° |
| 2026-05-07 00:26 | 41.46588 | -71.12649 | 25116 ft | 386 kts | 242° |
| 2026-05-07 00:26 | 41.45114 | -71.15652 | 25404 ft | 387 kts | 242° |
| 2026-05-07 00:26 | 41.43632 | -71.18647 | 25710 ft | 387 kts | 242° |
| 2026-05-07 00:27 | 41.42140 | -71.21641 | 26011 ft | 388 kts | 242° |
| 2026-05-07 00:27 | 41.40642 | -71.24629 | 26356 ft | 387 kts | 242° |
| 2026-05-07 00:27 | 41.39147 | -71.27598 | 26757 ft | 385 kts | 242° |
| 2026-05-07 00:27 | 41.37657 | -71.30552 | 27162 ft | 383 kts | 242° |
| 2026-05-07 00:28 | 41.36175 | -71.33486 | 27539 ft | 381 kts | 242° |
| 2026-05-07 00:28 | 41.34703 | -71.36404 | 27896 ft | 380 kts | 242° |
| 2026-05-07 00:28 | 41.33231 | -71.39320 | 28237 ft | 378 kts | 242° |
| 2026-05-07 00:28 | 41.31787 | -71.42181 | 28578 ft | 377 kts | 242° |
| 2026-05-07 00:29 | 41.30328 | -71.45068 | 28920 ft | 376 kts | 242° |
| 2026-05-07 00:29 | 41.28872 | -71.47946 | 29268 ft | 374 kts | 242° |
| 2026-05-07 00:30 | 41.24536 | -71.56499 | 30282 ft | 370 kts | 242° |
| 2026-05-07 00:30 | 41.23102 | -71.59319 | 30645 ft | 367 kts | 242° |
| 2026-05-07 00:30 | 41.21673 | -71.62126 | 30923 ft | 366 kts | 243° |
| 2026-05-07 00:30 | 41.20251 | -71.64921 | 31147 ft | 366 kts | 243° |
| 2026-05-07 00:31 | 41.18844 | -71.67684 | 31367 ft | 365 kts | 243° |
| 2026-05-07 00:31 | 41.17422 | -71.70475 | 31591 ft | 365 kts | 243° |
| 2026-05-07 00:31 | 41.15999 | -71.73262 | 31822 ft | 365 kts | 243° |
| 2026-05-07 00:31 | 41.14579 | -71.76043 | 32012 ft | 364 kts | 243° |
| 2026-05-07 00:32 | 41.13160 | -71.78827 | 32191 ft | 364 kts | 243° |
| 2026-05-07 00:32 | 41.11741 | -71.81615 | 32378 ft | 364 kts | 243° |
| 2026-05-07 00:32 | 41.10324 | -71.84398 | 32594 ft | 364 kts | 244° |
| 2026-05-07 00:32 | 41.08911 | -71.87173 | 32810 ft | 363 kts | 244° |
| 2026-05-07 00:33 | 41.07498 | -71.89943 | 33018 ft | 362 kts | 244° |
| 2026-05-07 00:33 | 41.06107 | -71.92667 | 33263 ft | 361 kts | 244° |
| 2026-05-07 00:33 | 41.04707 | -71.95413 | 33516 ft | 358 kts | 245° |
| 2026-05-07 00:33 | 41.03452 | -71.98230 | 33725 ft | 353 kts | 250° |
| 2026-05-07 00:34 | 41.02349 | -72.01128 | 33880 ft | 352 kts | 251° |
| 2026-05-07 00:34 | 41.01283 | -72.04054 | 34017 ft | 352 kts | 251° |
| 2026-05-07 00:34 | 41.00244 | -72.06981 | 34153 ft | 351 kts | 252° |
| 2026-05-07 00:34 | 40.99218 | -72.09907 | 34263 ft | 351 kts | 252° |
| 2026-05-07 00:35 | 40.98194 | -72.12834 | 34391 ft | 351 kts | 252° |
| 2026-05-07 00:35 | 40.97167 | -72.15765 | 34501 ft | 351 kts | 252° |
| 2026-05-07 00:35 | 40.96139 | -72.18686 | 34639 ft | 350 kts | 252° |
| 2026-05-07 00:35 | 40.95122 | -72.21566 | 34766 ft | 350 kts | 252° |
| 2026-05-07 00:36 | 40.94092 | -72.24476 | 34893 ft | 349 kts | 252° |
| 2026-05-07 00:36 | 40.93048 | -72.27374 | 35067 ft | 349 kts | 250° |
| 2026-05-07 00:36 | 40.91833 | -72.30169 | 35210 ft | 353 kts | 245° |
| 2026-05-07 00:36 | 40.90364 | -72.32799 | 35282 ft | 360 kts | 239° |
| 2026-05-07 00:37 | 40.86900 | -72.37668 | 35432 ft | 366 kts | 236° |
| 2026-05-07 00:37 | 40.83257 | -72.42402 | 35512 ft | 368 kts | 236° |
| 2026-05-07 00:38 | 40.79513 | -72.47007 | 35627 ft | 374 kts | 232° |
| 2026-05-07 00:38 | 40.75510 | -72.51420 | 35793 ft | 376 kts | 232° |
| 2026-05-07 00:39 | 40.71462 | -72.55796 | 35883 ft | 378 kts | 232° |
| 2026-05-07 00:39 | 40.67424 | -72.60225 | 35893 ft | 376 kts | 233° |
| 2026-05-07 00:40 | 40.63493 | -72.64725 | 35880 ft | 373 kts | 234° |
| 2026-05-07 00:40 | 40.59627 | -72.69198 | 35881 ft | 373 kts | 234° |
| 2026-05-07 00:41 | 40.55727 | -72.73695 | 35880 ft | 373 kts | 233° |
| 2026-05-07 00:41 | 40.51820 | -72.78176 | 35881 ft | 373 kts | 233° |
| 2026-05-07 00:42 | 40.47910 | -72.82647 | 35837 ft | 373 kts | 234° |
| 2026-05-07 00:42 | 40.44023 | -72.87083 | 35885 ft | 373 kts | 234° |
| 2026-05-07 00:43 | 40.40100 | -72.91557 | 35889 ft | 374 kts | 234° |
| 2026-05-07 00:43 | 40.36175 | -72.96023 | 35892 ft | 373 kts | 234° |
| 2026-05-07 00:44 | 40.32263 | -73.00466 | 35881 ft | 372 kts | 234° |
| 2026-05-07 00:44 | 40.28352 | -73.04900 | 35873 ft | 371 kts | 234° |
| 2026-05-07 00:45 | 40.24451 | -73.09295 | 35883 ft | 374 kts | 232° |
| 2026-05-07 00:45 | 40.20466 | -73.13679 | 35883 ft | 374 kts | 232° |
| 2026-05-07 00:46 | 40.16503 | -73.18078 | 35887 ft | 373 kts | 233° |
| 2026-05-07 00:46 | 40.12562 | -73.22502 | 35887 ft | 373 kts | 233° |
| 2026-05-07 00:47 | 40.08660 | -73.26898 | 35890 ft | 374 kts | 233° |
| 2026-05-07 00:47 | 40.04709 | -73.31338 | 35896 ft | 375 kts | 233° |
| 2026-05-07 00:48 | 40.00762 | -73.35755 | 35895 ft | 373 kts | 233° |
| 2026-05-07 00:48 | 39.96825 | -73.40154 | 35895 ft | 373 kts | 233° |
| 2026-05-07 00:49 | 39.92890 | -73.44547 | 35852 ft | 372 kts | 233° |
| 2026-05-07 00:49 | 39.88974 | -73.48917 | 35905 ft | 374 kts | 233° |
| 2026-05-07 00:50 | 39.85013 | -73.53328 | 35900 ft | 375 kts | 233° |
| 2026-05-07 00:50 | 39.81049 | -73.57739 | 35900 ft | 375 kts | 233° |
| 2026-05-07 00:51 | 39.77092 | -73.62140 | 35894 ft | 374 kts | 233° |
| 2026-05-07 00:51 | 39.73133 | -73.66540 | 35884 ft | 374 kts | 233° |
| 2026-05-07 00:52 | 39.69177 | -73.70928 | 35897 ft | 373 kts | 233° |
| 2026-05-07 00:52 | 39.65258 | -73.75270 | 35901 ft | 373 kts | 233° |
| 2026-05-07 00:53 | 39.61306 | -73.79640 | 35894 ft | 373 kts | 232° |
| 2026-05-07 00:53 | 39.59333 | -73.81819 | 35744 ft | 373 kts | 232° |
| 2026-05-07 00:53 | 39.57360 | -73.83994 | 35503 ft | 372 kts | 232° |
| 2026-05-07 00:54 | 39.55389 | -73.86166 | 35259 ft | 371 kts | 232° |
| 2026-05-07 00:54 | 39.54087 | -73.87599 | 35101 ft | 371 kts | 232° |
| 2026-05-07 00:54 | 39.52125 | -73.89760 | 34876 ft | 371 kts | 232° |
| 2026-05-07 00:54 | 39.49520 | -73.92629 | 34556 ft | 372 kts | 232° |
| 2026-05-07 00:55 | 39.47546 | -73.94802 | 34310 ft | 373 kts | 232° |
| 2026-05-07 00:55 | 39.45572 | -73.96973 | 34072 ft | 373 kts | 232° |
| 2026-05-07 00:55 | 39.43588 | -73.99152 | 33844 ft | 374 kts | 231° |
| 2026-05-07 00:55 | 39.41597 | -74.01336 | 33602 ft | 375 kts | 231° |
| 2026-05-07 00:56 | 39.40282 | -74.02777 | 33410 ft | 374 kts | 231° |
| 2026-05-07 00:56 | 39.38296 | -74.04946 | 33168 ft | 374 kts | 231° |
| 2026-05-07 00:56 | 39.36313 | -74.07113 | 32868 ft | 374 kts | 231° |
| 2026-05-07 00:56 | 39.34315 | -74.09300 | 32602 ft | 378 kts | 231° |
| 2026-05-07 00:57 | 39.32303 | -74.11500 | 32352 ft | 380 kts | 230° |
| 2026-05-07 00:57 | 39.30285 | -74.13703 | 32099 ft | 381 kts | 230° |
| 2026-05-07 00:57 | 39.28251 | -74.15918 | 31921 ft | 382 kts | 230° |
| 2026-05-07 00:57 | 39.26214 | -74.18135 | 31902 ft | 383 kts | 230° |
| 2026-05-07 00:58 | 39.22159 | -74.22540 | 31893 ft | 384 kts | 230° |
| 2026-05-07 00:58 | 39.18079 | -74.26967 | 31895 ft | 383 kts | 230° |
| 2026-05-07 00:59 | 39.11922 | -74.33645 | 31901 ft | 387 kts | 230° |
| 2026-05-07 01:00 | 39.07795 | -74.38108 | 31895 ft | 387 kts | 230° |
| 2026-05-07 01:00 | 39.03710 | -74.42513 | 31911 ft | 385 kts | 230° |
| 2026-05-07 01:01 | 38.99607 | -74.46938 | 31913 ft | 385 kts | 230° |
| 2026-05-07 01:01 | 38.95496 | -74.51366 | 31905 ft | 386 kts | 230° |
| 2026-05-07 01:02 | 38.91462 | -74.55880 | 31906 ft | 384 kts | 231° |
| 2026-05-07 01:02 | 38.87528 | -74.60505 | 31908 ft | 383 kts | 232° |
| 2026-05-07 01:03 | 38.83609 | -74.65135 | 31905 ft | 383 kts | 232° |
| 2026-05-07 01:03 | 38.79677 | -74.69749 | 31905 ft | 383 kts | 232° |
| 2026-05-07 01:04 | 38.75749 | -74.74337 | 31910 ft | 387 kts | 231° |
| 2026-05-07 01:04 | 38.71618 | -74.78836 | 31899 ft | 391 kts | 229° |
| 2026-05-07 01:05 | 38.67487 | -74.83068 | 31903 ft | 370 kts | 228° |
| 2026-05-07 01:05 | 38.63421 | -74.87263 | 31899 ft | 381 kts | 229° |
| 2026-05-07 01:06 | 38.59255 | -74.91607 | 31877 ft | 391 kts | 228° |
| 2026-05-07 01:06 | 38.55039 | -74.95982 | 31903 ft | 394 kts | 228° |
| 2026-05-07 01:07 | 38.50830 | -75.00446 | 31909 ft | 392 kts | 230° |
| 2026-05-07 01:07 | 38.46704 | -75.04994 | 31911 ft | 394 kts | 228° |
| 2026-05-07 01:07 | 38.44536 | -75.07150 | 31726 ft | 395 kts | 226° |
| 2026-05-07 01:08 | 38.42346 | -75.09248 | 31479 ft | 394 kts | 226° |
| 2026-05-07 01:08 | 38.40145 | -75.11339 | 31239 ft | 394 kts | 226° |
| 2026-05-07 01:08 | 38.37944 | -75.13432 | 30953 ft | 397 kts | 225° |
| 2026-05-07 01:08 | 38.35745 | -75.15522 | 30718 ft | 401 kts | 224° |
| 2026-05-07 01:09 | 38.33500 | -75.17653 | 30480 ft | 404 kts | 224° |
| 2026-05-07 01:09 | 38.31242 | -75.19792 | 30248 ft | 405 kts | 224° |
| 2026-05-07 01:09 | 38.28983 | -75.21931 | 30009 ft | 406 kts | 224° |
| 2026-05-07 01:09 | 38.26713 | -75.24078 | 29735 ft | 406 kts | 224° |
| 2026-05-07 01:10 | 38.24441 | -75.26226 | 29465 ft | 407 kts | 224° |
| 2026-05-07 01:10 | 38.22166 | -75.28375 | 29202 ft | 408 kts | 224° |
| 2026-05-07 01:10 | 38.19887 | -75.30527 | 28929 ft | 409 kts | 223° |
| 2026-05-07 01:10 | 38.17591 | -75.32694 | 28622 ft | 411 kts | 223° |
| 2026-05-07 01:11 | 38.15317 | -75.34840 | 28364 ft | 414 kts | 223° |
| 2026-05-07 01:11 | 38.12994 | -75.37028 | 28097 ft | 416 kts | 223° |
| 2026-05-07 01:11 | 38.10668 | -75.39218 | 27834 ft | 417 kts | 223° |
| 2026-05-07 01:11 | 38.08336 | -75.41411 | 27582 ft | 418 kts | 223° |
| 2026-05-07 01:12 | 38.06006 | -75.43625 | 27352 ft | 417 kts | 225° |
| 2026-05-07 01:12 | 38.03817 | -75.45999 | 27094 ft | 413 kts | 228° |
| 2026-05-07 01:12 | 38.01699 | -75.48457 | 26854 ft | 413 kts | 229° |
| 2026-05-07 01:12 | 37.99592 | -75.50933 | 26610 ft | 413 kts | 229° |
| 2026-05-07 01:13 | 37.97476 | -75.53422 | 26321 ft | 416 kts | 229° |
| 2026-05-07 01:13 | 37.95343 | -75.55926 | 26092 ft | 420 kts | 229° |
| 2026-05-07 01:13 | 37.93195 | -75.58443 | 25856 ft | 421 kts | 229° |
| 2026-05-07 01:13 | 37.91076 | -75.60919 | 25619 ft | 419 kts | 229° |
| 2026-05-07 01:14 | 37.88934 | -75.63420 | 25380 ft | 418 kts | 229° |
| 2026-05-07 01:14 | 37.86801 | -75.65908 | 25146 ft | 417 kts | 229° |
| 2026-05-07 01:14 | 37.84669 | -75.68393 | 24912 ft | 416 kts | 229° |
| 2026-05-07 01:14 | 37.82544 | -75.70869 | 24685 ft | 415 kts | 229° |
| 2026-05-07 01:15 | 37.80424 | -75.73337 | 24454 ft | 414 kts | 229° |
| 2026-05-07 01:15 | 37.78353 | -75.75747 | 24222 ft | 413 kts | 229° |
| 2026-05-07 01:15 | 37.76239 | -75.78205 | 24006 ft | 413 kts | 229° |
| 2026-05-07 01:15 | 37.74124 | -75.80664 | 23936 ft | 413 kts | 229° |
| 2026-05-07 01:16 | 37.72042 | -75.83078 | 23925 ft | 411 kts | 229° |
| 2026-05-07 01:16 | 37.69941 | -75.85512 | 23924 ft | 410 kts | 229° |
| 2026-05-07 01:16 | 37.67836 | -75.87951 | 23925 ft | 410 kts | 229° |
| 2026-05-07 01:16 | 37.65739 | -75.90379 | 23925 ft | 410 kts | 229° |
| 2026-05-07 01:17 | 37.63634 | -75.92815 | 23924 ft | 410 kts | 229° |
| 2026-05-07 01:17 | 37.61538 | -75.95250 | 23915 ft | 409 kts | 230° |
| 2026-05-07 01:17 | 37.59612 | -75.97859 | 23916 ft | 404 kts | 236° |
| 2026-05-07 01:17 | 37.57823 | -76.00587 | 23916 ft | 403 kts | 237° |
| 2026-05-07 01:18 | 37.56061 | -76.03334 | 23920 ft | 403 kts | 237° |
| 2026-05-07 01:18 | 37.54302 | -76.06080 | 23922 ft | 403 kts | 237° |
| 2026-05-07 01:18 | 37.52561 | -76.08793 | 23919 ft | 403 kts | 237° |
| 2026-05-07 01:18 | 37.50796 | -76.11536 | 23920 ft | 403 kts | 237° |
| 2026-05-07 01:19 | 37.49027 | -76.14280 | 23919 ft | 403 kts | 237° |
| 2026-05-07 01:19 | 37.47260 | -76.17012 | 23922 ft | 402 kts | 237° |
| 2026-05-07 01:19 | 37.45499 | -76.19735 | 23922 ft | 400 kts | 237° |
| 2026-05-07 01:19 | 37.43742 | -76.22454 | 23911 ft | 400 kts | 237° |
| 2026-05-07 01:20 | 37.41984 | -76.25171 | 23911 ft | 400 kts | 237° |
| 2026-05-07 01:20 | 37.40230 | -76.27880 | 23914 ft | 400 kts | 237° |
| 2026-05-07 01:20 | 37.38471 | -76.30594 | 23891 ft | 400 kts | 236° |
| 2026-05-07 01:20 | 37.36704 | -76.33320 | 23913 ft | 404 kts | 236° |
| 2026-05-07 01:21 | 37.34927 | -76.36058 | 23910 ft | 405 kts | 236° |
| 2026-05-07 01:21 | 37.33163 | -76.38770 | 23909 ft | 406 kts | 236° |
| 2026-05-07 01:21 | 37.31376 | -76.41516 | 23909 ft | 406 kts | 236° |
| 2026-05-07 01:21 | 37.29589 | -76.44258 | 23912 ft | 406 kts | 236° |
| 2026-05-07 01:22 | 37.27802 | -76.47000 | 23910 ft | 406 kts | 236° |
| 2026-05-07 01:22 | 37.26016 | -76.49748 | 23930 ft | 406 kts | 236° |
| 2026-05-07 01:22 | 37.24247 | -76.52503 | 23935 ft | 405 kts | 237° |
| 2026-05-07 01:22 | 37.22488 | -76.55250 | 23924 ft | 403 kts | 237° |
| 2026-05-07 01:23 | 37.20733 | -76.57990 | 23926 ft | 403 kts | 237° |
| 2026-05-07 01:23 | 37.18980 | -76.60724 | 23908 ft | 402 kts | 237° |
| 2026-05-07 01:23 | 37.17224 | -76.63467 | 23923 ft | 405 kts | 236° |
| 2026-05-07 01:23 | 37.15477 | -76.66189 | 23924 ft | 407 kts | 236° |
| 2026-05-07 01:24 | 37.13713 | -76.68969 | 23921 ft | 406 kts | 239° |
| 2026-05-07 01:24 | 37.12353 | -76.72022 | 23883 ft | 399 kts | 251° |
| 2026-05-07 01:24 | 37.11548 | -76.75330 | 23642 ft | 396 kts | 258° |
| 2026-05-07 01:24 | 37.10932 | -76.78684 | 23332 ft | 395 kts | 259° |
| 2026-05-07 01:25 | 37.10343 | -76.82038 | 23023 ft | 394 kts | 259° |
| 2026-05-07 01:25 | 37.09758 | -76.85383 | 22708 ft | 392 kts | 259° |
| 2026-05-07 01:25 | 37.09180 | -76.88713 | 22406 ft | 390 kts | 259° |
| 2026-05-07 01:25 | 37.08595 | -76.91973 | 22107 ft | 388 kts | 256° |
| 2026-05-07 01:26 | 37.07447 | -76.95037 | 21803 ft | 393 kts | 239° |
| 2026-05-07 01:26 | 37.05530 | -76.97501 | 21507 ft | 403 kts | 221° |
| 2026-05-07 01:26 | 37.03006 | -76.99126 | 21199 ft | 417 kts | 205° |
| 2026-05-07 01:26 | 37.00102 | -76.99722 | 20907 ft | 432 kts | 187° |
| 2026-05-07 01:27 | 36.97085 | -76.99198 | 20583 ft | 447 kts | 169° |
| 2026-05-07 01:27 | 36.94222 | -76.97564 | 20291 ft | 460 kts | 152° |
| 2026-05-07 01:27 | 36.91716 | -76.95025 | 20025 ft | 467 kts | 141° |
| 2026-05-07 01:27 | 36.89387 | -76.92183 | 19940 ft | 468 kts | 140° |
| 2026-05-07 01:28 | 36.87083 | -76.89306 | 19929 ft | 468 kts | 139° |
| 2026-05-07 01:28 | 36.84786 | -76.86431 | 19927 ft | 468 kts | 139° |
| 2026-05-07 01:28 | 36.82516 | -76.83601 | 19935 ft | 467 kts | 139° |
| 2026-05-07 01:28 | 36.80217 | -76.80742 | 19943 ft | 467 kts | 139° |
| 2026-05-07 01:29 | 36.77916 | -76.77879 | 19950 ft | 467 kts | 139° |
| 2026-05-07 01:29 | 36.75619 | -76.75022 | 19955 ft | 467 kts | 139° |
| 2026-05-07 01:29 | 36.73322 | -76.72165 | 19960 ft | 467 kts | 139° |
| 2026-05-07 01:29 | 36.71023 | -76.69309 | 19954 ft | 467 kts | 139° |
| 2026-05-07 01:30 | 36.68718 | -76.66452 | 20072 ft | 467 kts | 139° |
| 2026-05-07 01:30 | 36.66423 | -76.63605 | 20140 ft | 461 kts | 139° |
| 2026-05-07 01:30 | 36.64062 | -76.61038 | 20008 ft | 438 kts | 151° |
| 2026-05-07 01:30 | 36.61451 | -76.59255 | 20003 ft | 423 kts | 165° |
| 2026-05-07 01:31 | 36.58688 | -76.58371 | 19993 ft | 405 kts | 181° |
| 2026-05-07 01:31 | 36.55998 | -76.58423 | 19971 ft | 371 kts | 197° |
| 2026-05-07 01:31 | 36.53624 | -76.59254 | 19969 ft | 340 kts | 211° |
| 2026-05-07 01:31 | 36.51652 | -76.60646 | 19969 ft | 315 kts | 224° |
| 2026-05-07 01:32 | 36.50067 | -76.62448 | 19971 ft | 305 kts | 235° |
| 2026-05-07 01:32 | 36.48855 | -76.64577 | 19967 ft | 300 kts | 246° |
| 2026-05-07 01:32 | 36.48035 | -76.66939 | 19940 ft | 297 kts | 256° |
| 2026-05-07 01:32 | 36.47536 | -76.69427 | 19966 ft | 297 kts | 260° |
| 2026-05-07 01:33 | 36.47118 | -76.71941 | 19969 ft | 298 kts | 261° |
| 2026-05-07 01:33 | 36.46701 | -76.74464 | 19969 ft | 298 kts | 261° |
| 2026-05-07 01:33 | 36.46276 | -76.76983 | 19969 ft | 298 kts | 260° |
| 2026-05-07 01:33 | 36.45849 | -76.79469 | 19969 ft | 298 kts | 260° |
| 2026-05-07 01:34 | 36.45412 | -76.81986 | 19966 ft | 298 kts | 260° |
| 2026-05-07 01:34 | 36.44972 | -76.84499 | 19966 ft | 298 kts | 260° |
| 2026-05-07 01:34 | 36.44529 | -76.87022 | 19976 ft | 298 kts | 260° |
| 2026-05-07 01:34 | 36.44087 | -76.89534 | 19974 ft | 297 kts | 260° |
| 2026-05-07 01:35 | 36.43646 | -76.92032 | 19977 ft | 296 kts | 260° |
| 2026-05-07 01:35 | 36.43205 | -76.94526 | 19978 ft | 296 kts | 260° |
| 2026-05-07 01:35 | 36.42763 | -76.97023 | 19981 ft | 296 kts | 260° |
| 2026-05-07 01:35 | 36.42321 | -76.99512 | 19981 ft | 296 kts | 260° |
| 2026-05-07 01:36 | 36.41878 | -77.02006 | 19983 ft | 296 kts | 260° |
| 2026-05-07 01:36 | 36.41441 | -77.04464 | 19985 ft | 295 kts | 260° |
| 2026-05-07 01:36 | 36.40998 | -77.06954 | 19985 ft | 295 kts | 260° |
| 2026-05-07 01:36 | 36.40554 | -77.09445 | 19986 ft | 296 kts | 260° |
| 2026-05-07 01:37 | 36.40110 | -77.11934 | 19987 ft | 296 kts | 260° |
| 2026-05-07 01:37 | 36.39665 | -77.14425 | 19988 ft | 296 kts | 260° |
| 2026-05-07 01:37 | 36.39219 | -77.16914 | 19988 ft | 295 kts | 260° |
| 2026-05-07 01:37 | 36.38773 | -77.19402 | 19988 ft | 295 kts | 260° |
| 2026-05-07 01:38 | 36.38327 | -77.21890 | 19988 ft | 295 kts | 260° |
| 2026-05-07 01:38 | 36.37879 | -77.24381 | 19990 ft | 295 kts | 259° |
| 2026-05-07 01:38 | 36.37433 | -77.26860 | 19988 ft | 295 kts | 259° |
| 2026-05-07 01:38 | 36.36992 | -77.29308 | 19985 ft | 294 kts | 259° |
| 2026-05-07 01:39 | 36.36546 | -77.31784 | 19986 ft | 294 kts | 259° |
| 2026-05-07 01:39 | 36.36099 | -77.34260 | 19985 ft | 294 kts | 259° |
| 2026-05-07 01:39 | 36.35652 | -77.36733 | 19984 ft | 294 kts | 259° |
| 2026-05-07 01:39 | 36.35204 | -77.39209 | 19983 ft | 294 kts | 259° |
| 2026-05-07 01:40 | 36.34755 | -77.41684 | 19985 ft | 294 kts | 259° |
| 2026-05-07 01:40 | 36.34305 | -77.44162 | 19982 ft | 294 kts | 259° |
| 2026-05-07 01:40 | 36.33856 | -77.46635 | 19983 ft | 294 kts | 259° |
| 2026-05-07 01:40 | 36.33407 | -77.49104 | 19988 ft | 294 kts | 259° |
| 2026-05-07 01:41 | 36.32955 | -77.51586 | 19986 ft | 295 kts | 259° |
| 2026-05-07 01:41 | 36.32509 | -77.54028 | 19989 ft | 295 kts | 259° |
| 2026-05-07 01:41 | 36.32056 | -77.56510 | 19989 ft | 295 kts | 259° |
| 2026-05-07 01:41 | 36.31602 | -77.58992 | 19989 ft | 295 kts | 259° |
| 2026-05-07 01:42 | 36.31149 | -77.61468 | 19989 ft | 294 kts | 259° |
| 2026-05-07 01:42 | 36.30698 | -77.63931 | 19989 ft | 293 kts | 259° |
| 2026-05-07 01:42 | 36.30246 | -77.66391 | 19989 ft | 293 kts | 259° |
| 2026-05-07 01:42 | 36.29794 | -77.68852 | 19989 ft | 293 kts | 259° |
| 2026-05-07 01:43 | 36.29342 | -77.71311 | 19988 ft | 293 kts | 259° |
| 2026-05-07 01:43 | 36.28889 | -77.73768 | 19988 ft | 293 kts | 259° |
| 2026-05-07 01:43 | 36.28435 | -77.76230 | 19988 ft | 293 kts | 259° |
| 2026-05-07 01:43 | 36.27982 | -77.78685 | 19988 ft | 293 kts | 259° |
| 2026-05-07 01:44 | 36.27533 | -77.81113 | 19987 ft | 293 kts | 259° |
| 2026-05-07 01:44 | 36.27078 | -77.83572 | 19977 ft | 293 kts | 259° |
| 2026-05-07 01:44 | 36.26622 | -77.86030 | 19815 ft | 294 kts | 259° |
| 2026-05-07 01:44 | 36.26163 | -77.88507 | 19351 ft | 295 kts | 259° |
| 2026-05-07 01:45 | 36.25704 | -77.90974 | 18886 ft | 293 kts | 259° |
| 2026-05-07 01:45 | 36.25247 | -77.93431 | 18443 ft | 292 kts | 259° |
| 2026-05-07 01:45 | 36.24794 | -77.95857 | 18060 ft | 287 kts | 259° |
| 2026-05-07 01:45 | 36.24346 | -77.98255 | 17482 ft | 285 kts | 259° |
| 2026-05-07 01:46 | 36.23903 | -78.00630 | 16793 ft | 282 kts | 259° |
| 2026-05-07 01:46 | 36.23465 | -78.02977 | 16124 ft | 277 kts | 259° |
| 2026-05-07 01:46 | 36.22927 | -78.05228 | 15477 ft | 276 kts | 251° |
| 2026-05-07 01:46 | 36.22184 | -78.07402 | 14862 ft | 273 kts | 249° |
| 2026-05-07 01:47 | 36.21403 | -78.09526 | 14264 ft | 270 kts | 248° |
| 2026-05-07 01:47 | 36.20649 | -78.11645 | 13664 ft | 268 kts | 249° |
| 2026-05-07 01:47 | 36.19922 | -78.13775 | 12993 ft | 268 kts | 249° |
| 2026-05-07 01:47 | 36.19209 | -78.15892 | 12326 ft | 265 kts | 249° |
| 2026-05-07 01:48 | 36.18501 | -78.17996 | 11574 ft | 266 kts | 249° |
| 2026-05-07 01:48 | 36.17795 | -78.20097 | 10996 ft | 261 kts | 249° |
| 2026-05-07 01:48 | 36.17098 | -78.22172 | 10311 ft | 261 kts | 249° |
| 2026-05-07 01:48 | 36.16412 | -78.24216 | 9579 ft | 261 kts | 249° |
| 2026-05-07 01:49 | 36.15714 | -78.26292 | 8828 ft | 261 kts | 249° |
| 2026-05-07 01:49 | 36.15075 | -78.28386 | 8084 ft | 259 kts | 254° |
| 2026-05-07 01:49 | 36.14627 | -78.30544 | 7354 ft | 258 kts | 258° |
| 2026-05-07 01:49 | 36.14237 | -78.32706 | 6649 ft | 257 kts | 258° |
| 2026-05-07 01:50 | 36.13857 | -78.34863 | 5924 ft | 256 kts | 258° |
| 2026-05-07 01:50 | 36.13479 | -78.36999 | 5324 ft | 250 kts | 257° |
| 2026-05-07 01:50 | 36.13117 | -78.39040 | 4911 ft | 238 kts | 257° |
| 2026-05-07 01:50 | 36.12769 | -78.40991 | 4709 ft | 225 kts | 257° |
| 2026-05-07 01:51 | 36.12445 | -78.42789 | 4857 ft | 204 kts | 257° |
| 2026-05-07 01:51 | 36.12146 | -78.44434 | 5101 ft | 196 kts | 257° |
| 2026-05-07 01:51 | 36.11846 | -78.46074 | 5057 ft | 196 kts | 257° |
| 2026-05-07 01:51 | 36.11545 | -78.47720 | 5005 ft | 196 kts | 257° |
| 2026-05-07 01:52 | 36.11243 | -78.49361 | 4999 ft | 196 kts | 257° |
| 2026-05-07 01:52 | 36.10912 | -78.50991 | 4994 ft | 196 kts | 249° |
| 2026-05-07 01:52 | 36.10090 | -78.52337 | 4947 ft | 200 kts | 226° |
| 2026-05-07 01:52 | 36.08988 | -78.53405 | 4599 ft | 203 kts | 221° |
| 2026-05-07 01:53 | 36.07826 | -78.54449 | 3980 ft | 211 kts | 220° |
| 2026-05-07 01:53 | 36.06640 | -78.55536 | 3503 ft | 212 kts | 220° |
| 2026-05-07 01:53 | 36.05483 | -78.56632 | 3146 ft | 207 kts | 220° |
| 2026-05-07 01:53 | 36.04388 | -78.57689 | 3004 ft | 191 kts | 220° |
| 2026-05-07 01:54 | 36.03402 | -78.58660 | 2925 ft | 173 kts | 222° |
| 2026-05-07 01:54 | 36.02570 | -78.59656 | 2683 ft | 163 kts | 231° |
| 2026-05-07 01:54 | 36.01848 | -78.60727 | 2378 ft | 159 kts | 230° |
| 2026-05-07 01:54 | 36.01136 | -78.61773 | 2442 ft | 158 kts | 230° |
| 2026-05-07 01:55 | 36.00496 | -78.62863 | 2525 ft | 155 kts | 236° |
| 2026-05-07 01:55 | 35.99894 | -78.63967 | 2611 ft | 155 kts | 238° |
| 2026-05-07 01:55 | 35.99312 | -78.65076 | 2670 ft | 152 kts | 236° |
| 2026-05-07 01:55 | 35.98663 | -78.66107 | 2587 ft | 152 kts | 230° |
| 2026-05-07 01:56 | 35.98001 | -78.67044 | 2502 ft | 140 kts | 229° |
| 2026-05-07 01:56 | 35.97327 | -78.67902 | 2262 ft | 138 kts | 226° |
| 2026-05-07 01:56 | 35.96641 | -78.68745 | 2069 ft | 140 kts | 227° |
| 2026-05-07 01:56 | 35.95972 | -78.69614 | 1857 ft | 139 kts | 226° |
| 2026-05-07 01:57 | 35.95298 | -78.70488 | 1771 ft | 142 kts | 225° |
| 2026-05-07 01:57 | 35.94594 | -78.71349 | 1775 ft | 144 kts | 225° |
| 2026-05-07 01:57 | 35.93897 | -78.72234 | 1681 ft | 143 kts | 227° |
| 2026-05-07 01:57 | 35.93202 | -78.73105 | 1424 ft | 143 kts | 225° |
| 2026-05-07 01:58 | 35.92510 | -78.73976 | 1243 ft | 145 kts | 225° |
| 2026-05-07 01:58 | 35.91778 | -78.74854 | 1017 ft | 147 kts | 225° |
| 2026-05-07 01:58 | 35.91043 | -78.75771 | 877 ft | 152 kts | 224° |
| 2026-05-07 01:58 | 35.90288 | -78.76696 | 728 ft | 154 kts | 224° |
| 2026-05-07 01:59 | 35.89531 | -78.77626 | 509 ft | 152 kts | 225° |
| 2026-05-07 01:59 | 35.88807 | -78.78519 | 430 ft | 133 kts | 225° |
| 2026-05-07 01:59 | 35.88348 | -78.79089 | 418 ft | 51 kts | 224° |
| 2026-05-07 01:59 | 35.88217 | -78.79247 | 428 ft | 24 kts | 225° |
| 2026-05-07 02:00 | 35.88077 | -78.79418 | 430 ft | 33 kts | 223° |
| 2026-05-07 02:00 | 35.87930 | -78.79459 | 428 ft | 8 kts | 154° |
| 2026-05-07 02:00 | 35.87901 | -78.79455 | 427 ft | 0 kts | 194° |
| 2026-05-07 02:00 | 35.87884 | -78.79460 | 429 ft | 5 kts | 193° |
| 2026-05-07 02:01 | 35.87874 | -78.79467 | 429 ft | 0 kts | 222° |
| 2026-05-07 02:01 | 35.87872 | -78.79469 | 426 ft | 0 kts | 225° |
| 2026-05-07 02:01 | 35.87858 | -78.79488 | 429 ft | 11 kts | 229° |
| 2026-05-07 02:01 | 35.87779 | -78.79595 | 420 ft | 18 kts | 226° |
| 2026-05-07 02:02 | 35.87696 | -78.79658 | 426 ft | 10 kts | 173° |
| 2026-05-07 02:02 | 35.87679 | -78.79604 | 421 ft | 6 kts | 103° |
| 2026-05-07 02:02 | 35.87643 | -78.79562 | 427 ft | 7 kts | 136° |
| 2026-05-07 02:02 | 35.87642 | -78.79560 | 427 ft | 0 kts | 137° |